sensor_id;sensor_type;location;lat;lon;timestamp;P1;durP1;ratioP1;P2;durP2;ratioP2
29958;SDS011;16815;51.100;6.516;2022-07-10T00:01:31;6.13;;;1.70;;
29958;SDS011;16815;51.100;6.516;2022-07-10T00:03:57;4.20;;;1.77;;
29958;SDS011;16815;51.100;6.516;2022-07-10T00:06:23;4.93;;;1.40;;
29958;SDS011;16815;51.100;6.516;2022-07-10T00:08:49;4.50;;;1.50;;
29958;SDS011;16815;51.100;6.516;2022-07-10T00:11:15;4.83;;;2.10;;
29958;SDS011;16815;51.100;6.516;2022-07-10T00:13:41;4.60;;;1.47;;
29958;SDS011;16815;51.100;6.516;2022-07-10T00:16:07;3.17;;;1.60;;
29958;SDS011;16815;51.100;6.516;2022-07-10T00:18:33;4.73;;;2.00;;
29958;SDS011;16815;51.100;6.516;2022-07-10T00:20:59;3.23;;;1.40;;
29958;SDS011;16815;51.100;6.516;2022-07-10T00:23:25;4.67;;;1.70;;
29958;SDS011;16815;51.100;6.516;2022-07-10T00:25:51;3.07;;;1.70;;
29958;SDS011;16815;51.100;6.516;2022-07-10T00:28:17;6.00;;;1.57;;
29958;SDS011;16815;51.100;6.516;2022-07-10T00:30:43;4.13;;;1.53;;
29958;SDS011;16815;51.100;6.516;2022-07-10T00:33:09;7.73;;;1.60;;
29958;SDS011;16815;51.100;6.516;2022-07-10T00:35:35;4.10;;;1.73;;
29958;SDS011;16815;51.100;6.516;2022-07-10T00:38:01;5.80;;;1.70;;
29958;SDS011;16815;51.100;6.516;2022-07-10T00:40:27;6.20;;;1.53;;
29958;SDS011;16815;51.100;6.516;2022-07-10T00:42:53;5.93;;;1.73;;
29958;SDS011;16815;51.100;6.516;2022-07-10T00:45:19;6.87;;;1.47;;
29958;SDS011;16815;51.100;6.516;2022-07-10T00:47:45;4.37;;;1.77;;
29958;SDS011;16815;51.100;6.516;2022-07-10T00:50:11;2.70;;;1.40;;
29958;SDS011;16815;51.100;6.516;2022-07-10T00:52:38;4.73;;;2.03;;
29958;SDS011;16815;51.100;6.516;2022-07-10T00:55:05;5.40;;;1.90;;
29958;SDS011;16815;51.100;6.516;2022-07-10T00:57:31;2.57;;;1.50;;
29958;SDS011;16815;51.100;6.516;2022-07-10T00:59:58;6.77;;;1.70;;
29958;SDS011;16815;51.100;6.516;2022-07-10T01:02:24;7.40;;;2.10;;
29958;SDS011;16815;51.100;6.516;2022-07-10T01:04:50;5.47;;;1.77;;
29958;SDS011;16815;51.100;6.516;2022-07-10T01:07:16;5.43;;;2.00;;
29958;SDS011;16815;51.100;6.516;2022-07-10T01:09:43;6.37;;;2.13;;
29958;SDS011;16815;51.100;6.516;2022-07-10T01:12:10;6.70;;;1.80;;
29958;SDS011;16815;51.100;6.516;2022-07-10T01:14:36;4.20;;;1.80;;
29958;SDS011;16815;51.100;6.516;2022-07-10T01:17:04;4.47;;;1.73;;
29958;SDS011;16815;51.100;6.516;2022-07-10T01:19:31;3.43;;;1.43;;
29958;SDS011;16815;51.100;6.516;2022-07-10T01:21:57;4.23;;;1.87;;
29958;SDS011;16815;51.100;6.516;2022-07-10T01:24:23;4.20;;;2.00;;
29958;SDS011;16815;51.100;6.516;2022-07-10T01:26:49;5.07;;;1.63;;
29958;SDS011;16815;51.100;6.516;2022-07-10T01:29:15;4.50;;;2.00;;
29958;SDS011;16815;51.100;6.516;2022-07-10T01:31:41;2.60;;;1.70;;
29958;SDS011;16815;51.100;6.516;2022-07-10T01:34:07;3.77;;;1.73;;
29958;SDS011;16815;51.100;6.516;2022-07-10T01:36:34;3.50;;;1.80;;
29958;SDS011;16815;51.100;6.516;2022-07-10T01:39:00;6.83;;;1.70;;
29958;SDS011;16815;51.100;6.516;2022-07-10T01:41:26;3.43;;;1.70;;
29958;SDS011;16815;51.100;6.516;2022-07-10T01:43:52;2.63;;;1.60;;
29958;SDS011;16815;51.100;6.516;2022-07-10T01:46:19;5.43;;;1.60;;
29958;SDS011;16815;51.100;6.516;2022-07-10T01:48:45;3.30;;;1.70;;
29958;SDS011;16815;51.100;6.516;2022-07-10T01:51:11;4.07;;;1.80;;
29958;SDS011;16815;51.100;6.516;2022-07-10T01:53:38;4.80;;;2.20;;
29958;SDS011;16815;51.100;6.516;2022-07-10T01:56:06;6.53;;;2.00;;
29958;SDS011;16815;51.100;6.516;2022-07-10T01:58:32;3.50;;;1.80;;
29958;SDS011;16815;51.100;6.516;2022-07-10T02:00:58;3.00;;;1.90;;
29958;SDS011;16815;51.100;6.516;2022-07-10T02:03:24;7.03;;;2.33;;
29958;SDS011;16815;51.100;6.516;2022-07-10T02:06:14;4.17;;;1.93;;
29958;SDS011;16815;51.100;6.516;2022-07-10T02:08:40;5.23;;;2.00;;
29958;SDS011;16815;51.100;6.516;2022-07-10T02:11:06;7.03;;;2.33;;
29958;SDS011;16815;51.100;6.516;2022-07-10T02:13:32;4.80;;;2.10;;
29958;SDS011;16815;51.100;6.516;2022-07-10T02:15:58;6.33;;;2.30;;
29958;SDS011;16815;51.100;6.516;2022-07-10T02:18:24;5.23;;;1.70;;
29958;SDS011;16815;51.100;6.516;2022-07-10T02:20:51;6.27;;;2.33;;
29958;SDS011;16815;51.100;6.516;2022-07-10T02:23:17;6.40;;;2.03;;
29958;SDS011;16815;51.100;6.516;2022-07-10T02:25:43;3.37;;;1.90;;
29958;SDS011;16815;51.100;6.516;2022-07-10T02:28:09;7.23;;;2.17;;
29958;SDS011;16815;51.100;6.516;2022-07-10T02:30:35;4.23;;;2.00;;
29958;SDS011;16815;51.100;6.516;2022-07-10T02:33:02;7.07;;;2.17;;
29958;SDS011;16815;51.100;6.516;2022-07-10T02:35:28;5.17;;;2.17;;
29958;SDS011;16815;51.100;6.516;2022-07-10T02:37:54;4.80;;;2.17;;
29958;SDS011;16815;51.100;6.516;2022-07-10T02:40:20;6.57;;;2.33;;
29958;SDS011;16815;51.100;6.516;2022-07-10T02:42:46;7.10;;;2.30;;
29958;SDS011;16815;51.100;6.516;2022-07-10T02:45:12;4.30;;;2.57;;
29958;SDS011;16815;51.100;6.516;2022-07-10T02:47:38;4.73;;;2.13;;
29958;SDS011;16815;51.100;6.516;2022-07-10T02:50:04;6.60;;;2.40;;
29958;SDS011;16815;51.100;6.516;2022-07-10T02:52:30;6.37;;;2.30;;
29958;SDS011;16815;51.100;6.516;2022-07-10T02:54:56;5.00;;;2.20;;
29958;SDS011;16815;51.100;6.516;2022-07-10T02:57:23;5.33;;;2.10;;
29958;SDS011;16815;51.100;6.516;2022-07-10T02:59:48;4.73;;;2.40;;
29958;SDS011;16815;51.100;6.516;2022-07-10T03:02:14;7.97;;;2.50;;
29958;SDS011;16815;51.100;6.516;2022-07-10T03:04:40;5.60;;;2.23;;
29958;SDS011;16815;51.100;6.516;2022-07-10T03:07:06;4.37;;;2.10;;
29958;SDS011;16815;51.100;6.516;2022-07-10T03:09:32;5.37;;;2.30;;
29958;SDS011;16815;51.100;6.516;2022-07-10T03:11:58;5.30;;;2.33;;
29958;SDS011;16815;51.100;6.516;2022-07-10T03:14:25;4.17;;;1.97;;
29958;SDS011;16815;51.100;6.516;2022-07-10T03:16:51;4.03;;;1.80;;
29958;SDS011;16815;51.100;6.516;2022-07-10T03:19:17;6.53;;;2.50;;
29958;SDS011;16815;51.100;6.516;2022-07-10T03:21:43;6.83;;;2.10;;
29958;SDS011;16815;51.100;6.516;2022-07-10T03:24:09;4.80;;;2.27;;
29958;SDS011;16815;51.100;6.516;2022-07-10T03:26:35;9.83;;;2.27;;
29958;SDS011;16815;51.100;6.516;2022-07-10T03:29:01;4.40;;;1.93;;
29958;SDS011;16815;51.100;6.516;2022-07-10T03:31:27;5.30;;;2.30;;
29958;SDS011;16815;51.100;6.516;2022-07-10T03:33:53;5.23;;;1.97;;
29958;SDS011;16815;51.100;6.516;2022-07-10T03:36:19;3.20;;;2.00;;
29958;SDS011;16815;51.100;6.516;2022-07-10T03:38:45;4.30;;;2.07;;
29958;SDS011;16815;51.100;6.516;2022-07-10T03:41:11;5.40;;;2.40;;
29958;SDS011;16815;51.100;6.516;2022-07-10T03:43:37;3.90;;;2.13;;
29958;SDS011;16815;51.100;6.516;2022-07-10T03:46:03;7.87;;;2.17;;
29958;SDS011;16815;51.100;6.516;2022-07-10T03:48:29;5.90;;;2.27;;
29958;SDS011;16815;51.100;6.516;2022-07-10T03:50:55;4.63;;;2.37;;
29958;SDS011;16815;51.100;6.516;2022-07-10T03:53:21;5.00;;;2.10;;
29958;SDS011;16815;51.100;6.516;2022-07-10T03:55:47;4.03;;;2.13;;
29958;SDS011;16815;51.100;6.516;2022-07-10T03:58:14;5.53;;;2.40;;
29958;SDS011;16815;51.100;6.516;2022-07-10T04:00:40;5.10;;;2.50;;
29958;SDS011;16815;51.100;6.516;2022-07-10T04:03:07;5.70;;;2.13;;
29958;SDS011;16815;51.100;6.516;2022-07-10T04:05:33;5.23;;;2.73;;
29958;SDS011;16815;51.100;6.516;2022-07-10T04:08:00;6.63;;;2.33;;
29958;SDS011;16815;51.100;6.516;2022-07-10T04:10:27;4.70;;;2.57;;
29958;SDS011;16815;51.100;6.516;2022-07-10T04:12:53;18.53;;;3.07;;
29958;SDS011;16815;51.100;6.516;2022-07-10T04:15:19;6.53;;;2.70;;
29958;SDS011;16815;51.100;6.516;2022-07-10T04:17:45;3.90;;;2.40;;
29958;SDS011;16815;51.100;6.516;2022-07-10T04:20:11;4.20;;;2.40;;
29958;SDS011;16815;51.100;6.516;2022-07-10T04:22:37;2.40;;;2.20;;
29958;SDS011;16815;51.100;6.516;2022-07-10T04:25:04;3.13;;;2.03;;
29958;SDS011;16815;51.100;6.516;2022-07-10T04:27:30;7.50;;;2.90;;
29958;SDS011;16815;51.100;6.516;2022-07-10T04:29:56;6.47;;;2.50;;
29958;SDS011;16815;51.100;6.516;2022-07-10T04:32:22;9.67;;;3.33;;
29958;SDS011;16815;51.100;6.516;2022-07-10T04:34:48;4.23;;;2.37;;
29958;SDS011;16815;51.100;6.516;2022-07-10T04:37:14;5.60;;;2.67;;
29958;SDS011;16815;51.100;6.516;2022-07-10T04:39:41;5.07;;;2.43;;
29958;SDS011;16815;51.100;6.516;2022-07-10T04:42:07;5.10;;;2.07;;
29958;SDS011;16815;51.100;6.516;2022-07-10T04:44:33;6.17;;;2.57;;
29958;SDS011;16815;51.100;6.516;2022-07-10T04:46:59;5.13;;;2.60;;
29958;SDS011;16815;51.100;6.516;2022-07-10T04:49:25;5.37;;;2.20;;
29958;SDS011;16815;51.100;6.516;2022-07-10T04:51:52;5.83;;;2.80;;
29958;SDS011;16815;51.100;6.516;2022-07-10T04:54:18;5.27;;;2.43;;
29958;SDS011;16815;51.100;6.516;2022-07-10T04:56:44;5.90;;;2.60;;
29958;SDS011;16815;51.100;6.516;2022-07-10T04:59:10;5.27;;;2.30;;
29958;SDS011;16815;51.100;6.516;2022-07-10T05:01:36;7.80;;;2.60;;
29958;SDS011;16815;51.100;6.516;2022-07-10T05:04:02;4.47;;;2.23;;
29958;SDS011;16815;51.100;6.516;2022-07-10T05:06:28;6.53;;;2.40;;
29958;SDS011;16815;51.100;6.516;2022-07-10T05:08:55;5.10;;;2.50;;
29958;SDS011;16815;51.100;6.516;2022-07-10T05:11:21;4.70;;;2.70;;
29958;SDS011;16815;51.100;6.516;2022-07-10T05:13:47;5.57;;;2.00;;
29958;SDS011;16815;51.100;6.516;2022-07-10T05:16:13;5.37;;;2.20;;
29958;SDS011;16815;51.100;6.516;2022-07-10T05:18:39;7.87;;;2.30;;
29958;SDS011;16815;51.100;6.516;2022-07-10T05:21:06;4.87;;;2.43;;
29958;SDS011;16815;51.100;6.516;2022-07-10T05:23:32;6.77;;;2.30;;
29958;SDS011;16815;51.100;6.516;2022-07-10T05:25:58;4.63;;;2.00;;
29958;SDS011;16815;51.100;6.516;2022-07-10T05:28:24;6.07;;;2.30;;
29958;SDS011;16815;51.100;6.516;2022-07-10T05:30:50;5.50;;;2.30;;
29958;SDS011;16815;51.100;6.516;2022-07-10T05:33:16;7.10;;;1.90;;
29958;SDS011;16815;51.100;6.516;2022-07-10T05:35:42;6.27;;;1.77;;
29958;SDS011;16815;51.100;6.516;2022-07-10T05:38:08;4.33;;;2.00;;
29958;SDS011;16815;51.100;6.516;2022-07-10T05:40:34;6.20;;;2.20;;
29958;SDS011;16815;51.100;6.516;2022-07-10T05:43:00;4.23;;;2.10;;
29958;SDS011;16815;51.100;6.516;2022-07-10T05:45:26;4.53;;;2.23;;
29958;SDS011;16815;51.100;6.516;2022-07-10T05:47:52;5.57;;;2.10;;
29958;SDS011;16815;51.100;6.516;2022-07-10T05:50:18;4.43;;;2.03;;
29958;SDS011;16815;51.100;6.516;2022-07-10T05:52:44;5.33;;;2.30;;
29958;SDS011;16815;51.100;6.516;2022-07-10T05:55:10;3.90;;;2.17;;
29958;SDS011;16815;51.100;6.516;2022-07-10T05:57:36;4.43;;;1.90;;
29958;SDS011;16815;51.100;6.516;2022-07-10T06:00:05;4.50;;;1.97;;
29958;SDS011;16815;51.100;6.516;2022-07-10T06:02:32;2.60;;;1.70;;
29958;SDS011;16815;51.100;6.516;2022-07-10T06:04:58;4.57;;;2.10;;
29958;SDS011;16815;51.100;6.516;2022-07-10T06:07:24;5.83;;;1.90;;
29958;SDS011;16815;51.100;6.516;2022-07-10T06:09:50;5.90;;;2.10;;
29958;SDS011;16815;51.100;6.516;2022-07-10T06:12:16;5.40;;;2.10;;
29958;SDS011;16815;51.100;6.516;2022-07-10T06:14:42;6.47;;;2.30;;
29958;SDS011;16815;51.100;6.516;2022-07-10T06:17:08;4.63;;;2.13;;
29958;SDS011;16815;51.100;6.516;2022-07-10T06:19:34;4.10;;;2.10;;
29958;SDS011;16815;51.100;6.516;2022-07-10T06:22:00;4.83;;;2.00;;
29958;SDS011;16815;51.100;6.516;2022-07-10T06:24:44;5.57;;;2.47;;
29958;SDS011;16815;51.100;6.516;2022-07-10T06:27:10;5.60;;;2.30;;
29958;SDS011;16815;51.100;6.516;2022-07-10T06:29:37;5.07;;;2.30;;
29958;SDS011;16815;51.100;6.516;2022-07-10T06:32:03;3.00;;;2.00;;
29958;SDS011;16815;51.100;6.516;2022-07-10T06:34:29;6.50;;;2.73;;
29958;SDS011;16815;51.100;6.516;2022-07-10T06:36:55;5.90;;;2.10;;
29958;SDS011;16815;51.100;6.516;2022-07-10T06:39:21;5.23;;;2.00;;
29958;SDS011;16815;51.100;6.516;2022-07-10T06:41:47;6.97;;;1.97;;
29958;SDS011;16815;51.100;6.516;2022-07-10T06:44:13;3.70;;;1.83;;
29958;SDS011;16815;51.100;6.516;2022-07-10T06:46:39;5.53;;;1.90;;
29958;SDS011;16815;51.100;6.516;2022-07-10T06:49:05;3.80;;;2.40;;
29958;SDS011;16815;51.100;6.516;2022-07-10T06:51:31;4.27;;;2.00;;
29958;SDS011;16815;51.100;6.516;2022-07-10T06:53:57;5.00;;;1.80;;
29958;SDS011;16815;51.100;6.516;2022-07-10T06:56:23;5.70;;;2.10;;
29958;SDS011;16815;51.100;6.516;2022-07-10T06:58:49;4.23;;;1.93;;
29958;SDS011;16815;51.100;6.516;2022-07-10T07:01:15;4.13;;;2.07;;
29958;SDS011;16815;51.100;6.516;2022-07-10T07:03:41;7.30;;;2.23;;
29958;SDS011;16815;51.100;6.516;2022-07-10T07:06:07;4.83;;;2.10;;
29958;SDS011;16815;51.100;6.516;2022-07-10T07:08:35;4.67;;;2.00;;
29958;SDS011;16815;51.100;6.516;2022-07-10T07:11:01;7.90;;;2.00;;
29958;SDS011;16815;51.100;6.516;2022-07-10T07:13:27;6.80;;;2.00;;
29958;SDS011;16815;51.100;6.516;2022-07-10T07:15:53;6.10;;;1.97;;
29958;SDS011;16815;51.100;6.516;2022-07-10T07:18:29;4.33;;;2.10;;
29958;SDS011;16815;51.100;6.516;2022-07-10T07:21:00;3.67;;;1.60;;
29958;SDS011;16815;51.100;6.516;2022-07-10T07:23:46;7.20;;;2.37;;
29958;SDS011;16815;51.100;6.516;2022-07-10T07:26:12;5.10;;;1.87;;
29958;SDS011;16815;51.100;6.516;2022-07-10T07:28:38;4.73;;;2.20;;
29958;SDS011;16815;51.100;6.516;2022-07-10T07:31:05;8.23;;;2.10;;
29958;SDS011;16815;51.100;6.516;2022-07-10T07:33:30;4.57;;;1.90;;
29958;SDS011;16815;51.100;6.516;2022-07-10T07:35:56;5.73;;;1.87;;
29958;SDS011;16815;51.100;6.516;2022-07-10T07:38:22;5.83;;;2.10;;
29958;SDS011;16815;51.100;6.516;2022-07-10T07:40:48;6.17;;;1.47;;
29958;SDS011;16815;51.100;6.516;2022-07-10T07:43:14;3.40;;;1.70;;
29958;SDS011;16815;51.100;6.516;2022-07-10T07:45:40;6.23;;;1.93;;
29958;SDS011;16815;51.100;6.516;2022-07-10T07:48:06;3.10;;;1.57;;
29958;SDS011;16815;51.100;6.516;2022-07-10T07:50:34;4.43;;;1.90;;
29958;SDS011;16815;51.100;6.516;2022-07-10T07:53:00;5.13;;;2.10;;
29958;SDS011;16815;51.100;6.516;2022-07-10T07:55:26;6.80;;;1.90;;
29958;SDS011;16815;51.100;6.516;2022-07-10T07:57:53;5.50;;;1.90;;
29958;SDS011;16815;51.100;6.516;2022-07-10T08:00:19;5.87;;;1.80;;
29958;SDS011;16815;51.100;6.516;2022-07-10T08:02:47;4.77;;;1.53;;
29958;SDS011;16815;51.100;6.516;2022-07-10T08:05:13;6.33;;;1.50;;
29958;SDS011;16815;51.100;6.516;2022-07-10T08:07:40;6.93;;;1.97;;
29958;SDS011;16815;51.100;6.516;2022-07-10T08:10:07;4.73;;;1.80;;
29958;SDS011;16815;51.100;6.516;2022-07-10T08:12:34;3.73;;;1.57;;
29958;SDS011;16815;51.100;6.516;2022-07-10T08:15:00;4.30;;;1.63;;
29958;SDS011;16815;51.100;6.516;2022-07-10T08:17:26;5.83;;;1.87;;
29958;SDS011;16815;51.100;6.516;2022-07-10T08:19:52;5.10;;;1.97;;
29958;SDS011;16815;51.100;6.516;2022-07-10T08:22:18;8.50;;;2.70;;
29958;SDS011;16815;51.100;6.516;2022-07-10T08:24:44;3.97;;;1.30;;
29958;SDS011;16815;51.100;6.516;2022-07-10T08:27:10;4.80;;;1.63;;
29958;SDS011;16815;51.100;6.516;2022-07-10T08:29:37;5.00;;;1.70;;
29958;SDS011;16815;51.100;6.516;2022-07-10T08:32:03;3.20;;;1.50;;
29958;SDS011;16815;51.100;6.516;2022-07-10T08:34:30;3.47;;;1.60;;
29958;SDS011;16815;51.100;6.516;2022-07-10T08:36:58;6.63;;;1.90;;
29958;SDS011;16815;51.100;6.516;2022-07-10T08:39:24;5.60;;;2.03;;
29958;SDS011;16815;51.100;6.516;2022-07-10T08:41:50;5.33;;;2.03;;
29958;SDS011;16815;51.100;6.516;2022-07-10T08:44:16;4.87;;;2.43;;
29958;SDS011;16815;51.100;6.516;2022-07-10T08:46:43;4.20;;;1.70;;
29958;SDS011;16815;51.100;6.516;2022-07-10T08:49:09;4.83;;;1.80;;
29958;SDS011;16815;51.100;6.516;2022-07-10T08:51:57;4.93;;;2.03;;
29958;SDS011;16815;51.100;6.516;2022-07-10T08:54:27;4.23;;;1.93;;
29958;SDS011;16815;51.100;6.516;2022-07-10T08:56:54;5.43;;;2.13;;
29958;SDS011;16815;51.100;6.516;2022-07-10T08:59:21;3.83;;;1.50;;
29958;SDS011;16815;51.100;6.516;2022-07-10T09:01:48;4.97;;;1.87;;
29958;SDS011;16815;51.100;6.516;2022-07-10T09:04:18;6.30;;;1.47;;
29958;SDS011;16815;51.100;6.516;2022-07-10T09:06:44;4.60;;;1.97;;
29958;SDS011;16815;51.100;6.516;2022-07-10T09:09:10;6.37;;;1.70;;
29958;SDS011;16815;51.100;6.516;2022-07-10T09:11:37;5.40;;;1.77;;
29958;SDS011;16815;51.100;6.516;2022-07-10T09:14:05;7.00;;;2.37;;
29958;SDS011;16815;51.100;6.516;2022-07-10T09:16:36;5.47;;;2.63;;
29958;SDS011;16815;51.100;6.516;2022-07-10T09:19:22;6.97;;;1.60;;
29958;SDS011;16815;51.100;6.516;2022-07-10T09:22:09;6.73;;;2.03;;
29958;SDS011;16815;51.100;6.516;2022-07-10T09:24:35;5.73;;;1.80;;
29958;SDS011;16815;51.100;6.516;2022-07-10T09:27:01;8.77;;;1.83;;
29958;SDS011;16815;51.100;6.516;2022-07-10T09:29:31;7.13;;;2.43;;
29958;SDS011;16815;51.100;6.516;2022-07-10T09:31:58;5.63;;;1.70;;
29958;SDS011;16815;51.100;6.516;2022-07-10T09:34:43;2.73;;;1.70;;
29958;SDS011;16815;51.100;6.516;2022-07-10T09:37:28;4.23;;;2.03;;
29958;SDS011;16815;51.100;6.516;2022-07-10T09:39:55;5.80;;;2.00;;
29958;SDS011;16815;51.100;6.516;2022-07-10T09:42:28;4.90;;;1.90;;
29958;SDS011;16815;51.100;6.516;2022-07-10T09:47:43;4.33;;;2.07;;
29958;SDS011;16815;51.100;6.516;2022-07-10T09:52:58;5.07;;;1.90;;
29958;SDS011;16815;51.100;6.516;2022-07-10T09:55:25;3.73;;;1.67;;
29958;SDS011;16815;51.100;6.516;2022-07-10T09:57:55;5.57;;;1.87;;
29958;SDS011;16815;51.100;6.516;2022-07-10T10:00:26;4.77;;;1.60;;
29958;SDS011;16815;51.100;6.516;2022-07-10T10:02:55;3.43;;;1.73;;
29958;SDS011;16815;51.100;6.516;2022-07-10T10:05:24;3.57;;;1.80;;
29958;SDS011;16815;51.100;6.516;2022-07-10T10:07:52;4.00;;;2.00;;
29958;SDS011;16815;51.100;6.516;2022-07-10T10:10:18;2.93;;;1.73;;
29958;SDS011;16815;51.100;6.516;2022-07-10T10:12:48;5.30;;;1.97;;
29958;SDS011;16815;51.100;6.516;2022-07-10T10:15:16;5.67;;;2.27;;
29958;SDS011;16815;51.100;6.516;2022-07-10T10:17:42;3.13;;;2.17;;
29958;SDS011;16815;51.100;6.516;2022-07-10T10:20:09;4.53;;;1.83;;
29958;SDS011;16815;51.100;6.516;2022-07-10T10:22:54;2.80;;;1.60;;
29958;SDS011;16815;51.100;6.516;2022-07-10T10:25:20;4.80;;;1.60;;
29958;SDS011;16815;51.100;6.516;2022-07-10T10:27:48;2.97;;;1.60;;
29958;SDS011;16815;51.100;6.516;2022-07-10T10:30:14;2.87;;;1.50;;
29958;SDS011;16815;51.100;6.516;2022-07-10T10:32:40;4.00;;;1.73;;
29958;SDS011;16815;51.100;6.516;2022-07-10T10:35:06;3.43;;;1.80;;
29958;SDS011;16815;51.100;6.516;2022-07-10T10:37:38;3.13;;;1.50;;
29958;SDS011;16815;51.100;6.516;2022-07-10T10:40:10;3.80;;;1.70;;
29958;SDS011;16815;51.100;6.516;2022-07-10T10:42:40;2.92;;;1.50;;
29958;SDS011;16815;51.100;6.516;2022-07-10T10:45:25;2.73;;;1.30;;
29958;SDS011;16815;51.100;6.516;2022-07-10T10:48:08;4.75;;;1.60;;
29958;SDS011;16815;51.100;6.516;2022-07-10T10:53:13;3.53;;;1.50;;
29958;SDS011;16815;51.100;6.516;2022-07-10T10:55:41;5.72;;;1.45;;
29958;SDS011;16815;51.100;6.516;2022-07-10T10:58:17;3.17;;;1.65;;
29958;SDS011;16815;51.100;6.516;2022-07-10T11:00:43;8.07;;;1.70;;
29958;SDS011;16815;51.100;6.516;2022-07-10T11:03:19;3.30;;;1.67;;
29958;SDS011;16815;51.100;6.516;2022-07-10T11:05:46;3.72;;;1.50;;
29958;SDS011;16815;51.100;6.516;2022-07-10T11:08:13;3.45;;;1.60;;
29958;SDS011;16815;51.100;6.516;2022-07-10T11:10:45;6.57;;;1.60;;
29958;SDS011;16815;51.100;6.516;2022-07-10T11:13:11;3.72;;;1.92;;
29958;SDS011;16815;51.100;6.516;2022-07-10T11:15:38;3.78;;;1.45;;
29958;SDS011;16815;51.100;6.516;2022-07-10T11:18:05;7.35;;;2.13;;
29958;SDS011;16815;51.100;6.516;2022-07-10T11:20:35;2.05;;;1.45;;
29958;SDS011;16815;51.100;6.516;2022-07-10T11:26:04;3.50;;;1.80;;
29958;SDS011;16815;51.100;6.516;2022-07-10T11:28:40;2.13;;;1.30;;
29958;SDS011;16815;51.100;6.516;2022-07-10T11:31:06;3.20;;;1.70;;
29958;SDS011;16815;51.100;6.516;2022-07-10T11:33:54;4.43;;;1.80;;
29958;SDS011;16815;51.100;6.516;2022-07-10T11:36:20;2.53;;;1.43;;
29958;SDS011;16815;51.100;6.516;2022-07-10T11:38:47;3.73;;;2.23;;
29958;SDS011;16815;51.100;6.516;2022-07-10T11:41:14;3.37;;;1.60;;
29958;SDS011;16815;51.100;6.516;2022-07-10T11:43:46;3.50;;;1.97;;
29958;SDS011;16815;51.100;6.516;2022-07-10T11:46:12;4.43;;;1.57;;
29958;SDS011;16815;51.100;6.516;2022-07-10T11:48:39;2.90;;;1.77;;
29958;SDS011;16815;51.100;6.516;2022-07-10T11:51:17;3.67;;;1.50;;
29958;SDS011;16815;51.100;6.516;2022-07-10T11:53:55;3.05;;;1.30;;
29958;SDS011;16815;51.100;6.516;2022-07-10T11:56:22;1.63;;;1.17;;
29958;SDS011;16815;51.100;6.516;2022-07-10T11:58:57;3.35;;;1.50;;
29958;SDS011;16815;51.100;6.516;2022-07-10T12:01:23;2.72;;;1.45;;
29958;SDS011;16815;51.100;6.516;2022-07-10T12:04:00;3.17;;;1.77;;
29958;SDS011;16815;51.100;6.516;2022-07-10T12:06:27;4.93;;;1.90;;
29958;SDS011;16815;51.100;6.516;2022-07-10T12:08:53;5.45;;;1.77;;
29958;SDS011;16815;51.100;6.516;2022-07-10T12:11:20;3.35;;;1.25;;
29958;SDS011;16815;51.100;6.516;2022-07-10T12:13:47;2.43;;;1.40;;
29958;SDS011;16815;51.100;6.516;2022-07-10T12:16:14;2.05;;;1.55;;
29958;SDS011;16815;51.100;6.516;2022-07-10T12:18:43;3.23;;;1.20;;
29958;SDS011;16815;51.100;6.516;2022-07-10T12:21:09;2.90;;;1.30;;
29958;SDS011;16815;51.100;6.516;2022-07-10T12:23:36;3.83;;;1.50;;
29958;SDS011;16815;51.100;6.516;2022-07-10T12:26:07;6.93;;;1.97;;
29958;SDS011;16815;51.100;6.516;2022-07-10T12:28:47;4.47;;;1.73;;
29958;SDS011;16815;51.100;6.516;2022-07-10T12:31:19;5.47;;;1.40;;
29958;SDS011;16815;51.100;6.516;2022-07-10T12:33:49;3.13;;;1.40;;
29958;SDS011;16815;51.100;6.516;2022-07-10T12:36:16;6.27;;;1.80;;
29958;SDS011;16815;51.100;6.516;2022-07-10T12:38:42;2.40;;;1.37;;
29958;SDS011;16815;51.100;6.516;2022-07-10T12:41:11;4.77;;;1.50;;
29958;SDS011;16815;51.100;6.516;2022-07-10T12:43:37;5.13;;;2.07;;
29958;SDS011;16815;51.100;6.516;2022-07-10T12:46:07;3.47;;;1.60;;
29958;SDS011;16815;51.100;6.516;2022-07-10T12:48:33;5.13;;;1.90;;
29958;SDS011;16815;51.100;6.516;2022-07-10T12:51:18;9.43;;;2.37;;
29958;SDS011;16815;51.100;6.516;2022-07-10T12:53:45;4.87;;;1.70;;
29958;SDS011;16815;51.100;6.516;2022-07-10T12:56:25;3.60;;;1.47;;
29958;SDS011;16815;51.100;6.516;2022-07-10T12:58:51;9.17;;;1.60;;
29958;SDS011;16815;51.100;6.516;2022-07-10T13:01:17;4.17;;;1.67;;
29958;SDS011;16815;51.100;6.516;2022-07-10T13:03:43;4.03;;;1.73;;
29958;SDS011;16815;51.100;6.516;2022-07-10T13:06:28;2.23;;;1.63;;
29958;SDS011;16815;51.100;6.516;2022-07-10T13:08:54;2.55;;;1.60;;
29958;SDS011;16815;51.100;6.516;2022-07-10T13:11:20;5.20;;;1.85;;
29958;SDS011;16815;51.100;6.516;2022-07-10T13:13:46;3.40;;;1.50;;
29958;SDS011;16815;51.100;6.516;2022-07-10T13:16:12;2.28;;;1.60;;
29958;SDS011;16815;51.100;6.516;2022-07-10T13:18:41;3.15;;;1.60;;
29958;SDS011;16815;51.100;6.516;2022-07-10T13:21:07;2.08;;;1.50;;
29958;SDS011;16815;51.100;6.516;2022-07-10T13:23:33;3.05;;;1.40;;
29958;SDS011;16815;51.100;6.516;2022-07-10T13:26:00;2.72;;;1.60;;
29958;SDS011;16815;51.100;6.516;2022-07-10T13:28:27;3.30;;;1.63;;
29958;SDS011;16815;51.100;6.516;2022-07-10T13:30:53;3.30;;;1.55;;
29958;SDS011;16815;51.100;6.516;2022-07-10T13:33:20;3.33;;;2.03;;
29958;SDS011;16815;51.100;6.516;2022-07-10T13:35:46;2.85;;;1.52;;
29958;SDS011;16815;51.100;6.516;2022-07-10T13:38:12;3.92;;;2.33;;
29958;SDS011;16815;51.100;6.516;2022-07-10T13:40:38;4.97;;;1.50;;
29958;SDS011;16815;51.100;6.516;2022-07-10T13:43:05;4.00;;;1.80;;
29958;SDS011;16815;51.100;6.516;2022-07-10T13:45:33;4.18;;;1.63;;
29958;SDS011;16815;51.100;6.516;2022-07-10T13:48:07;3.55;;;1.70;;
29958;SDS011;16815;51.100;6.516;2022-07-10T13:50:34;3.55;;;1.42;;
29958;SDS011;16815;51.100;6.516;2022-07-10T13:53:00;2.78;;;1.60;;
29958;SDS011;16815;51.100;6.516;2022-07-10T13:55:26;2.42;;;1.50;;
29958;SDS011;16815;51.100;6.516;2022-07-10T13:57:52;2.95;;;1.45;;
29958;SDS011;16815;51.100;6.516;2022-07-10T14:00:18;2.55;;;1.45;;
29958;SDS011;16815;51.100;6.516;2022-07-10T14:02:44;1.88;;;1.35;;
29958;SDS011;16815;51.100;6.516;2022-07-10T14:05:10;3.53;;;1.63;;
29958;SDS011;16815;51.100;6.516;2022-07-10T14:07:36;3.55;;;1.58;;
29958;SDS011;16815;51.100;6.516;2022-07-10T14:10:02;4.05;;;2.05;;
29958;SDS011;16815;51.100;6.516;2022-07-10T14:12:28;1.95;;;1.70;;
29958;SDS011;16815;51.100;6.516;2022-07-10T14:14:54;1.60;;;1.30;;
29958;SDS011;16815;51.100;6.516;2022-07-10T14:17:20;2.47;;;1.40;;
29958;SDS011;16815;51.100;6.516;2022-07-10T14:19:47;2.78;;;1.50;;
29958;SDS011;16815;51.100;6.516;2022-07-10T14:22:13;2.45;;;1.33;;
29958;SDS011;16815;51.100;6.516;2022-07-10T14:24:39;3.03;;;1.40;;
29958;SDS011;16815;51.100;6.516;2022-07-10T14:27:05;1.83;;;1.38;;
29958;SDS011;16815;51.100;6.516;2022-07-10T14:29:31;3.40;;;1.30;;
29958;SDS011;16815;51.100;6.516;2022-07-10T14:31:57;3.22;;;1.90;;
29958;SDS011;16815;51.100;6.516;2022-07-10T14:34:23;2.95;;;1.30;;
29958;SDS011;16815;51.100;6.516;2022-07-10T14:36:49;3.45;;;1.20;;
29958;SDS011;16815;51.100;6.516;2022-07-10T14:39:16;1.85;;;1.20;;
29958;SDS011;16815;51.100;6.516;2022-07-10T14:41:42;4.22;;;1.50;;
29958;SDS011;16815;51.100;6.516;2022-07-10T14:44:08;2.80;;;1.30;;
29958;SDS011;16815;51.100;6.516;2022-07-10T14:46:34;3.13;;;1.45;;
29958;SDS011;16815;51.100;6.516;2022-07-10T14:49:00;2.97;;;1.65;;
29958;SDS011;16815;51.100;6.516;2022-07-10T14:51:26;2.03;;;1.58;;
29958;SDS011;16815;51.100;6.516;2022-07-10T14:53:52;2.85;;;1.35;;
29958;SDS011;16815;51.100;6.516;2022-07-10T14:56:19;2.65;;;1.30;;
29958;SDS011;16815;51.100;6.516;2022-07-10T14:58:45;3.92;;;1.25;;
29958;SDS011;16815;51.100;6.516;2022-07-10T15:01:12;1.67;;;1.20;;